• Join FlightAware (Why Join?)
  • Login
  • US Flag 
05:07AM EDT


 

Airport Tracker/Info


-or-


 

Live Flight TrackerFlight Track Log ✈ N998TW ✈ 07-May-2013 ✈ KADS - KJBR

Flight Track Log - Related Links

Times and Time Zones

All times are in EDT time to prevent confusion due to time zone crossing. See the N998TW flight status page for this flight to view local times or setup timezone preferences in your user account.

Time Position Orientation Groundspeed Altitude Reporting Facility
EDT Latitude Longitude Course Direction KTS MPH feet Rate Location/Type
05:34PM 32.9667 -96.7333 91° East 261 300 2,500  Level Dallas / Fort Worth TRACON
05:35PM 33.0042 -96.6208 68° East 281 323 6,300 3,000 Climbing Fort Worth Center
05:36PM 33.0306 -96.5289 71° East 276 318 10,000 3,000 Climbing Fort Worth Center
05:37PM 33.0531 -96.4469 72° East 276 318 12,400 2,640 Climbing Fort Worth Center
05:38PM 33.0836 -96.3375 72° East 296 341 15,300 2,640 Climbing Fort Worth Center
05:39PM 33.1097 -96.2478 71° East 314 361 17,700 1,800 Climbing Fort Worth Center
05:40PM 33.1461 -96.1258 70° East 330 380 19,000 1,200 Climbing Fort Worth Center
05:41PM 33.1783 -96.0161 71° East 367 422 20,200 1,440 Climbing Fort Worth Center
05:42PM 33.2164 -95.8789 72° East 389 448 21,900 1,440 Climbing Fort Worth Center
05:43PM 33.2506 -95.7692 70° East 389 448 23,100 1,500 Climbing Fort Worth Center
05:44PM 33.2925 -95.6292 70° East 389 448 25,000 900 Climbing Fort Worth Center
05:45PM 33.3239 -95.4967 74° East 389 448 25,000 840 Level Fort Worth Center
05:46PM 33.3636 -95.3664 70° East 405 466 26,700 1,680 Climbing Fort Worth Center
05:47PM 33.4011 -95.2414 70° East 405 466 28,400 1,740 Climbing Fort Worth Center
05:48PM 33.4344 -95.1158 72° East 405 466 30,200 1,740 Climbing Fort Worth Center
05:49PM 33.4717 -94.9906 70° East 400 460 32,000 1,800 Climbing Fort Worth Center
05:50PM 33.5069 -94.8675 71° East 394 453 33,800 1,500 Climbing Fort Worth Center
05:51PM 33.5342 -94.7719 71° East 382 440 35,000 600 Climbing Fort Worth Center
05:52PM 33.5789 -94.6186 71° East 394 453 35,000  Level Fort Worth Center
05:53PM 33.6194 -94.4825 70° East 407 468 35,000  Level Fort Worth Center
05:54PM 33.6578 -94.3392 72° East 430 495 35,000  Level Fort Worth Center
05:55PM 33.7044 -94.1975 68° East 443 510 35,000  Level Fort Worth Center
05:56PM 33.7678 -94.0678 60° Northeast 443 510 35,000  Level Fort Worth Center
05:57PM 33.8072 -93.9819 61° Northeast 451 519 35,000  Level Memphis Center
05:58PM 33.8733 -93.8547 58° Northeast 457 526 35,000  Level Memphis Center
05:59PM 33.9353 -93.7244 60° Northeast 451 519 35,000  Level Memphis Center
06:00PM 33.9992 -93.5992 58° Northeast 446 513 35,000  Level Memphis Center
06:01PM 34.0772 -93.4817 51° Northeast 441 507 35,000  Level Memphis Center
06:02PM 34.1533 -93.3617 53° Northeast 441 507 35,000  Level Memphis Center
06:03PM 34.2311 -93.2436 51° Northeast 446 513 35,000  Level Memphis Center
06:04PM 34.3028 -93.1256 54° Northeast 446 513 35,000  Level Memphis Center
06:05PM 34.3717 -93.0244 50° Northeast 446 513 35,000  Level Memphis Center
06:06PM 34.4456 -92.8933 56° Northeast 446 513 35,000  Level Memphis Center
06:07PM 34.5206 -92.7822 51° Northeast 441 507 35,000  Level Memphis Center
06:08PM 34.5939 -92.6631 53° Northeast 435 501 35,000  Level Memphis Center
06:09PM 34.6689 -92.5464 52° Northeast 435 501 35,000 -480 Level Memphis Center
06:10PM 34.7378 -92.4319 54° Northeast 430 495 34,100 -1,320 Descending Memphis Center
06:11PM 34.8106 -92.3225 51° Northeast 425 489 32,400 -1,560 Descending Memphis Center
06:12PM 34.8767 -92.2125 54° Northeast 411 473 31,000 -720 Descending Memphis Center
06:13PM 34.9494 -92.1003 52° Northeast 411 473 31,000 -300 Level Memphis Center
06:14PM 35.0175 -91.9875 54° Northeast 411 473 30,400 -1,500 Descending Memphis Center
06:15PM 35.0878 -91.8772 52° Northeast 411 473 28,100 -2,160 Descending Memphis Center
06:17PM 35.2261 -91.6483 53° Northeast 411 473 24,000 -1,380 Descending Memphis Center
06:18PM 35.2958 -91.5375 52° Northeast 406 467 24,000 -1,260 Level Memphis Center
06:19PM 35.3636 -91.4289 53° Northeast 406 467 21,500 -3,000 Descending Memphis Center
06:20PM 35.4356 -91.3153 52° Northeast 396 456 18,100 -3,180 Descending Memphis Center
06:21PM 35.4947 -91.2114 55° Northeast 367 422 15,200 -2,820 Descending Memphis Center
06:22PM 35.5494 -91.1225 53° Northeast 346 398 12,500 -2,700 Descending Memphis Center